Dummer, New Hampshire
Current Conditions -  °F | °C
As of 4:52 AM on Thursday 23 Oct 2014 (Local Time) from KBML Reporting Station
Light Rain Light Rain  
Wind Chill: 45°   Ceiling: 1000
Heat Index: 45°   Visibility: 4mi
Dew Point: 43°   Wind: 3mph
Humidity: 93%   Direction: 310°NW
Pressure: 29.98"   Gusts: NA
Location:  44.6084°N, 71.1109°W
Report Text: KBML 230852Z AUTO 31003KT 4SM -RA BR OVC010 07/06 A2998 RMK AO2 CIG 008V013 SLP159 P0001 60002 T00720061 56014
Loading
Personal Weather Stations






























Interactive Weather Map
Tropical Storm Tracking
New forecast layout! Learn more

10-Day Weather Forecast

Advertisements
Track Severe Weather on mobile